createdAt,value
2023-05-10T00:02:18.171Z,101097.60
2023-05-10T00:07:20.469Z,101096.00
2023-05-10T00:12:22.451Z,101092.20
2023-05-10T00:17:24.346Z,101087.60
2023-05-10T00:22:26.102Z,101087.80
2023-05-10T00:27:28.210Z,101087.20
2023-05-10T00:32:30.290Z,101091.20
2023-05-10T00:37:32.044Z,101083.00
2023-05-10T00:42:34.121Z,101077.00
2023-05-10T00:47:36.532Z,101078.00
2023-05-10T00:52:38.811Z,101076.40
2023-05-10T00:57:40.990Z,101080.40
2023-05-10T01:02:43.371Z,101083.40
2023-05-10T01:07:45.387Z,101080.80
2023-05-10T01:12:48.313Z,101077.20
2023-05-10T01:17:51.531Z,101070.80
2023-05-10T01:23:31.338Z,101066.00
2023-05-10T01:29:12.984Z,101065.20
2023-05-10T01:34:26.192Z,101063.80
2023-05-10T01:39:38.921Z,101069.00
2023-05-10T01:44:54.736Z,101060.80
2023-05-10T01:50:02.662Z,101059.60
2023-05-10T01:55:13.936Z,101059.20
2023-05-10T02:00:17.873Z,101059.20
2023-05-10T02:05:22.299Z,101056.20
2023-05-10T02:10:24.492Z,101064.20
2023-05-10T02:15:28.164Z,101064.00
2023-05-10T02:20:32.944Z,101060.60
2023-05-10T02:25:36.672Z,101058.80
2023-05-10T02:30:39.916Z,101066.20
2023-05-10T02:35:42.883Z,101065.40
2023-05-10T02:40:46.833Z,101058.80
2023-05-10T02:45:49.366Z,101056.60
2023-05-10T02:50:55.489Z,101053.80
2023-05-10T02:56:04.727Z,101047.60
2023-05-10T03:01:08.282Z,101050.80
2023-05-10T03:06:10.226Z,101049.20
2023-05-10T03:11:46.004Z,101055.60
2023-05-10T03:17:04.985Z,101055.60
2023-05-10T03:22:12.077Z,101051.80
2023-05-10T03:27:15.908Z,101047.00
2023-05-10T03:32:18.199Z,101044.20
2023-05-10T03:37:19.987Z,101047.40
2023-05-10T03:42:21.745Z,101038.60
2023-05-10T03:47:23.827Z,101046.20
2023-05-10T03:52:25.904Z,101048.80
2023-05-10T03:57:27.686Z,101050.40
2023-05-10T04:02:30.991Z,101044.20
2023-05-10T04:07:33.191Z,101045.20
2023-05-10T04:12:34.875Z,101043.60
2023-05-10T04:17:36.865Z,101045.60
2023-05-10T04:22:38.813Z,101051.60
2023-05-10T04:27:40.822Z,101045.00
2023-05-10T04:32:42.678Z,101050.20
2023-05-10T04:37:44.755Z,101045.20
2023-05-10T04:42:47.145Z,101042.60
2023-05-10T04:47:48.903Z,101037.00
2023-05-10T04:52:51.300Z,101039.20
2023-05-10T04:57:57.398Z,101030.80
2023-05-10T05:02:59.455Z,101038.60
2023-05-10T05:08:01.653Z,101037.20
2023-05-10T05:13:03.553Z,101036.20
2023-05-10T05:18:05.358Z,101032.20
2023-05-10T05:23:07.219Z,101034.40
2023-05-10T05:28:08.953Z,101035.60
2023-05-10T05:33:10.749Z,101031.00
2023-05-10T05:38:12.706Z,101033.20
2023-05-10T05:43:14.605Z,101033.60
2023-05-10T05:48:16.377Z,101029.80
2023-05-10T05:53:18.339Z,101033.40
2023-05-10T05:58:21.236Z,101029.60
2023-05-10T06:03:23.334Z,101026.60
2023-05-10T06:08:26.331Z,101025.60
2023-05-10T06:13:33.072Z,101028.20
2023-05-10T06:18:35.412Z,101027.20
2023-05-10T06:23:37.297Z,101019.20
2023-05-10T06:28:39.673Z,101022.00
2023-05-10T06:33:41.496Z,101018.00
2023-05-10T06:38:43.226Z,101019.80
2023-05-10T06:43:45.000Z,101012.20
2023-05-10T06:48:46.790Z,101018.20
2023-05-10T06:53:48.654Z,101011.20
2023-05-10T06:58:50.765Z,101017.20
2023-05-10T07:03:52.647Z,101013.60
2023-05-10T07:08:54.488Z,101012.20
2023-05-10T07:13:56.676Z,101015.40
2023-05-10T07:18:58.589Z,101006.40
2023-05-10T07:24:01.455Z,101007.80
2023-05-10T07:29:03.551Z,101005.80
2023-05-10T07:34:05.521Z,101004.40
2023-05-10T07:39:08.111Z,101002.80
2023-05-10T07:44:09.996Z,101012.20
2023-05-10T07:49:11.757Z,101009.00
2023-05-10T07:54:15.177Z,101006.60
2023-05-10T07:59:18.469Z,101006.80
2023-05-10T08:04:20.413Z,100997.20
2023-05-10T08:09:24.390Z,101004.40
2023-05-10T08:14:30.883Z,101000.20
2023-05-10T08:19:32.792Z,100999.80
2023-05-10T08:24:38.725Z,100993.60
2023-05-10T08:29:49.353Z,101000.40
2023-05-10T08:34:51.699Z,100996.20
2023-05-10T08:39:53.697Z,100995.60
2023-05-10T08:44:58.541Z,100997.00
2023-05-10T08:50:03.489Z,100997.00
2023-05-10T08:55:05.685Z,101002.80
2023-05-10T09:00:09.787Z,101007.20
2023-05-10T09:05:11.885Z,100998.60
2023-05-10T09:10:15.293Z,101004.40
2023-05-10T09:15:19.774Z,100996.00
2023-05-10T09:20:21.802Z,101005.60
2023-05-10T09:25:23.647Z,101007.40
2023-05-10T09:30:31.553Z,100996.40
2023-05-10T09:35:34.315Z,100987.20
2023-05-10T09:40:36.181Z,100988.00
2023-05-10T09:45:39.209Z,100990.40
2023-05-10T09:50:42.493Z,100988.40
2023-05-10T09:55:47.174Z,100981.40
2023-05-10T10:00:52.747Z,100971.80
2023-05-10T10:05:56.456Z,100972.60
2023-05-10T10:10:58.927Z,100963.20
2023-05-10T10:16:00.814Z,100947.00
2023-05-10T10:21:03.293Z,100945.60
2023-05-10T10:26:06.900Z,100944.60
2023-05-10T10:32:05.207Z,100930.80
2023-05-10T10:37:07.656Z,100919.40
2023-05-10T10:42:09.918Z,100921.60
2023-05-10T10:47:12.582Z,100915.60
2023-05-10T10:52:20.962Z,100909.60
2023-05-10T10:57:22.781Z,100906.20
2023-05-10T11:03:09.005Z,100909.00
2023-05-10T11:08:32.180Z,100900.60
2023-05-10T11:13:41.422Z,100897.80
2023-05-10T11:19:10.046Z,100893.60
2023-05-10T11:24:18.906Z,100886.80
2023-05-10T11:29:21.164Z,100884.00
2023-05-10T11:34:30.623Z,100884.00
2023-05-10T11:39:34.018Z,100873.60
2023-05-10T11:44:36.045Z,100879.80
2023-05-10T11:49:37.819Z,100867.40
2023-05-10T11:54:52.118Z,100869.60
2023-05-10T11:59:55.667Z,100859.60
2023-05-10T12:04:58.142Z,100863.00
2023-05-10T12:10:27.337Z,100869.00
2023-05-10T12:15:29.168Z,100866.40
2023-05-10T12:20:31.335Z,100864.00
2023-05-10T12:25:38.231Z,100863.80
2023-05-10T12:30:40.216Z,100866.60
2023-05-10T12:35:51.582Z,100867.80
2023-05-10T12:40:53.533Z,100861.00
2023-05-10T12:45:56.432Z,100873.20
2023-05-10T12:50:58.168Z,100866.40
2023-05-10T12:55:59.961Z,100874.80
2023-05-10T13:01:02.053Z,100864.60
2023-05-10T13:06:04.744Z,100858.00
2023-05-10T13:11:06.905Z,100860.60
2023-05-10T13:16:08.816Z,100856.80
2023-05-10T13:21:11.792Z,100861.00
2023-05-10T13:26:13.867Z,100855.60
2023-05-10T13:31:16.028Z,100853.20
2023-05-10T13:36:18.031Z,100841.80
2023-05-10T13:41:19.824Z,100843.20
2023-05-10T13:46:21.828Z,100840.40
2023-05-10T13:51:23.667Z,100833.40
2023-05-10T13:56:25.555Z,100837.20
2023-05-10T14:01:27.749Z,100828.20
2023-05-10T14:06:29.752Z,100829.20
2023-05-10T14:11:31.704Z,100830.20
2023-05-10T14:16:33.617Z,100829.60
2023-05-10T14:21:35.860Z,100830.80
2023-05-10T14:26:37.839Z,100825.80
2023-05-10T14:31:41.312Z,100825.40
2023-05-10T14:36:43.128Z,100820.20
2023-05-10T14:41:46.333Z,100822.60
2023-05-10T14:46:49.030Z,100822.00
2023-05-10T14:51:50.817Z,100819.20
2023-05-10T14:56:52.575Z,100819.20
2023-05-10T15:01:54.464Z,100818.40
2023-05-10T15:06:59.709Z,100812.20
2023-05-10T15:12:01.697Z,100809.40
2023-05-10T15:17:03.972Z,100813.00
2023-05-10T15:22:06.282Z,100815.60
2023-05-10T15:27:08.253Z,100811.40
2023-05-10T15:32:10.329Z,100808.80
2023-05-10T15:37:12.311Z,100814.40
2023-05-10T15:42:14.082Z,100811.20
2023-05-10T15:47:15.990Z,100814.00
2023-05-10T15:52:18.864Z,100812.00
2023-05-10T15:57:20.756Z,100808.60
2023-05-10T16:02:22.946Z,100802.40
2023-05-10T16:07:25.177Z,100806.00
2023-05-10T16:12:27.716Z,100808.80
2023-05-10T16:17:29.414Z,100809.60
2023-05-10T16:22:31.358Z,100805.80
2023-05-10T16:27:33.346Z,100808.80
2023-05-10T16:32:35.464Z,100804.20
2023-05-10T16:37:37.449Z,100810.00
2023-05-10T16:42:39.291Z,100814.00
2023-05-10T16:47:41.278Z,100815.80
2023-05-10T16:52:43.648Z,100816.20
2023-05-10T16:57:45.747Z,100819.20
2023-05-10T17:02:48.846Z,100817.60
2023-05-10T17:07:50.866Z,100820.40
2023-05-10T17:12:53.309Z,100830.80
2023-05-10T17:17:55.625Z,100833.60
2023-05-10T17:22:58.100Z,100836.40
2023-05-10T17:28:00.115Z,100846.40
2023-05-10T17:33:02.696Z,100852.20
2023-05-10T17:38:04.640Z,100855.00
2023-05-10T17:43:06.930Z,100862.00
2023-05-10T17:48:10.857Z,100869.20
2023-05-10T17:53:12.836Z,100869.40
2023-05-10T17:58:15.171Z,100876.00
2023-05-10T18:03:17.203Z,100876.80
2023-05-10T18:08:22.367Z,100887.60
2023-05-10T18:13:25.260Z,100889.20
2023-05-10T18:18:27.284Z,100892.60
2023-05-10T18:23:29.125Z,100890.40
2023-05-10T18:28:31.161Z,100898.20
2023-05-10T18:33:33.086Z,100905.80
2023-05-10T18:38:34.978Z,100906.00
2023-05-10T18:43:36.843Z,100917.20
2023-05-10T18:48:38.611Z,100918.80
2023-05-10T18:53:40.486Z,100929.20
2023-05-10T18:58:42.362Z,100930.40
2023-05-10T19:03:44.259Z,100928.40
2023-05-10T19:08:46.118Z,100929.00
2023-05-10T19:13:47.892Z,100931.60
2023-05-10T19:18:51.864Z,100941.40
2023-05-10T19:23:54.447Z,100936.00
2023-05-10T19:28:57.278Z,100937.20
2023-05-10T19:34:00.760Z,100937.60
2023-05-10T19:39:03.340Z,100933.80
2023-05-10T19:44:05.105Z,100945.00
2023-05-10T19:49:07.293Z,100948.60
2023-05-10T19:54:09.256Z,100949.00
2023-05-10T19:59:11.149Z,100958.60
2023-05-10T20:04:13.122Z,100967.20
2023-05-10T20:09:15.713Z,100967.60
2023-05-10T20:14:17.796Z,100973.60
2023-05-10T20:19:19.564Z,100973.20
2023-05-10T20:24:21.869Z,100972.40
2023-05-10T20:29:23.859Z,100973.20
2023-05-10T20:34:25.616Z,100971.40
2023-05-10T20:39:28.625Z,100971.60
2023-05-10T20:44:30.700Z,100972.80
2023-05-10T20:49:33.472Z,100976.60
2023-05-10T20:54:35.394Z,100980.80
2023-05-10T20:59:37.358Z,100980.40
2023-05-10T21:04:39.272Z,100983.40
2023-05-10T21:09:41.322Z,100979.80
2023-05-10T21:14:43.818Z,100986.80
2023-05-10T21:19:45.690Z,100981.60
2023-05-10T21:24:47.692Z,100986.40
2023-05-10T21:29:49.566Z,100980.40
2023-05-10T21:34:51.321Z,100986.00
2023-05-10T21:39:53.604Z,100987.00
2023-05-10T21:44:55.391Z,100990.60
2023-05-10T21:49:57.200Z,100994.20
2023-05-10T21:54:59.044Z,100990.80
2023-05-10T22:00:01.040Z,100993.20
2023-05-10T22:05:03.606Z,101002.60
2023-05-10T22:10:07.371Z,101001.40
2023-05-10T22:15:11.093Z,101002.60
2023-05-10T22:20:13.451Z,101004.00
2023-05-10T22:25:15.629Z,101009.00
2023-05-10T22:30:18.912Z,101008.40
2023-05-10T22:35:21.321Z,101010.40
2023-05-10T22:40:23.312Z,101019.60
2023-05-10T22:45:25.280Z,101024.20
2023-05-10T22:50:29.219Z,101020.60
2023-05-10T22:55:30.982Z,101024.20
2023-05-10T23:00:33.473Z,101023.20
2023-05-10T23:05:35.284Z,101023.00
2023-05-10T23:10:38.051Z,101020.80
2023-05-10T23:15:40.159Z,101020.60
2023-05-10T23:20:44.678Z,101022.00
2023-05-10T23:25:46.556Z,101017.80
2023-05-10T23:30:57.959Z,101014.60
2023-05-10T23:35:59.726Z,101014.60
2023-05-10T23:41:01.536Z,101014.20
2023-05-10T23:46:07.153Z,101024.60
2023-05-10T23:51:08.882Z,101023.60
2023-05-10T23:56:11.439Z,101024.60
